Time;durP1;ratioP1;P1;durP2;ratioP2;P2;SDS_P1;SDS_P2;PMS_P1;PMS_P2;Temp;Humidity;BMP_temperature;BMP_pressure;BME280_temperature;BME280_humidity;BME280_pressure;Samples;Min_cycle;Max_cycle;Signal;HPM_P1;HPM_P2
2021/03/04 00:00:22;;;;;;;12.97;8.30;;;;;;;;;;5033029;28;20447;-72
2021/03/04 00:02:49;;;;;;;10.10;8.00;;;;;;;;;;5033319;28;20524;-71
2021/03/04 00:05:16;;;;;;;12.47;8.23;;;;;;;;;;5015043;28;20473;-73
2021/03/04 00:07:42;;;;;;;11.10;8.03;;;;;;;;;;5033175;28;20446;-72
2021/03/04 00:10:09;;;;;;;11.90;7.90;;;;;;;;;;5016544;28;20455;-72
2021/03/04 00:12:35;;;;;;;8.67;7.27;;;;;;;;;;5034452;28;20429;-79
2021/03/04 00:15:02;;;;;;;12.60;7.50;;;;;;;;;;5033133;28;20935;-73
2021/03/04 00:17:28;;;;;;;10.20;8.40;;;;;;;;;;5032856;28;20440;-74
2021/03/04 00:19:54;;;;;;;11.73;7.93;;;;;;;;;;5032833;28;20465;-72
2021/03/04 00:22:20;;;;;;;10.90;7.37;;;;;;;;;;5031987;28;20466;-76
2021/03/04 00:24:46;;;;;;;12.20;8.00;;;;;;;;;;5031751;28;20478;-75
2021/03/04 00:27:12;;;;;;;9.37;7.20;;;;;;;;;;5032186;28;20430;-82
2021/03/04 00:29:38;;;;;;;11.37;6.97;;;;;;;;;;5032564;28;20436;-72
2021/03/04 00:32:04;;;;;;;11.20;7.37;;;;;;;;;;5032518;28;20483;-73
2021/03/04 00:34:30;;;;;;;17.27;8.40;;;;;;;;;;5013937;28;20491;-72
2021/03/04 00:36:56;;;;;;;10.70;7.30;;;;;;;;;;5032637;28;20440;-73
2021/03/04 00:39:22;;;;;;;9.47;6.90;;;;;;;;;;5031731;28;20456;-73
2021/03/04 00:41:48;;;;;;;9.47;7.30;;;;;;;;;;5031901;28;20432;-77
2021/03/04 00:44:14;;;;;;;10.80;6.90;;;;;;;;;;5032316;28;20461;-72
2021/03/04 00:46:40;;;;;;;9.70;7.23;;;;;;;;;;5032364;28;20465;-76
2021/03/04 00:49:06;;;;;;;9.40;6.87;;;;;;;;;;5032126;28;20428;-75
2021/03/04 00:51:32;;;;;;;12.97;7.07;;;;;;;;;;5014389;28;20459;-72
2021/03/04 00:53:58;;;;;;;11.53;7.93;;;;;;;;;;5031923;28;20439;-86
2021/03/04 00:56:24;;;;;;;10.60;6.93;;;;;;;;;;5035182;28;20791;-78
2021/03/04 00:58:50;;;;;;;13.40;7.60;;;;;;;;;;5032874;28;20441;-73
2021/03/04 01:01:16;;;;;;;11.63;7.50;;;;;;;;;;5032012;28;20439;-74
2021/03/04 01:03:42;;;;;;;11.10;7.63;;;;;;;;;;5032158;28;20439;-73
2021/03/04 01:06:08;;;;;;;11.33;7.43;;;;;;;;;;5014612;28;20941;-73
2021/03/04 01:08:34;;;;;;;12.57;7.13;;;;;;;;;;5032063;28;20463;-77
2021/03/04 01:11:00;;;;;;;12.63;8.00;;;;;;;;;;5031359;28;20471;-76
2021/03/04 01:13:26;;;;;;;9.60;7.33;;;;;;;;;;5031848;28;20428;-74
2021/03/04 01:15:52;;;;;;;11.40;7.83;;;;;;;;;;5013830;28;20921;-75
2021/03/04 01:18:18;;;;;;;11.70;8.87;;;;;;;;;;5032235;28;20446;-70
2021/03/04 01:20:44;;;;;;;15.17;8.83;;;;;;;;;;5032079;28;20781;-73
2021/03/04 01:23:10;;;;;;;13.97;8.17;;;;;;;;;;5032964;28;20447;-72
2021/03/04 01:25:36;;;;;;;9.80;8.27;;;;;;;;;;5033411;28;20476;-71
2021/03/04 01:28:02;;;;;;;10.23;7.23;;;;;;;;;;5035100;28;20886;-70
2021/03/04 01:30:30;;;;;;;10.17;8.37;;;;;;;;;;5032506;28;20526;-77
2021/03/04 01:32:56;;;;;;;12.73;8.13;;;;;;;;;;5032092;28;20826;-72
2021/03/04 01:35:22;;;;;;;12.50;8.40;;;;;;;;;;5031240;28;20428;-72
2021/03/04 01:37:48;;;;;;;10.97;7.93;;;;;;;;;;5031435;28;20443;-75
2021/03/04 01:40:15;;;;;;;11.60;8.33;;;;;;;;;;5030774;28;20440;-76
2021/03/04 01:42:41;;;;;;;10.37;7.87;;;;;;;;;;5032236;28;20439;-71
2021/03/04 01:45:08;;;;;;;13.30;8.70;;;;;;;;;;5031958;28;20483;-72
2021/03/04 01:47:35;;;;;;;14.93;9.13;;;;;;;;;;5031403;28;20443;-72
2021/03/04 01:50:02;;;;;;;13.57;7.70;;;;;;;;;;5031665;28;20891;-71
2021/03/04 01:52:28;;;;;;;9.00;8.00;;;;;;;;;;5032049;28;20482;-72
2021/03/04 01:54:54;;;;;;;11.87;7.50;;;;;;;;;;5033930;28;20470;-77
2021/03/04 01:57:20;;;;;;;13.00;8.43;;;;;;;;;;5035555;28;20886;-72
2021/03/04 01:59:46;;;;;;;10.83;7.60;;;;;;;;;;5035949;28;20449;-72
2021/03/04 02:02:12;;;;;;;12.03;8.47;;;;;;;;;;5037096;28;20609;-76
2021/03/04 02:04:38;;;;;;;13.67;7.70;;;;;;;;;;5035976;28;20815;-72
2021/03/04 02:07:23;;;;;;;13.97;9.77;;;;;;;;;;5035511;28;20435;-71
2021/03/04 02:09:56;;;;;;;12.87;8.50;;;;;;;;;;5016426;28;20458;-72
2021/03/04 02:12:29;;;;;;;13.87;8.47;;;;;;;;;;5034947;28;20424;-71
2021/03/04 02:14:59;;;;;;;10.57;8.00;;;;;;;;;;5035037;28;20984;-71
2021/03/04 02:17:27;;;;;;;10.43;7.47;;;;;;;;;;5034840;28;20433;-75
2021/03/04 02:20:07;;;;;;;9.30;7.63;;;;;;;;;;5034310;28;20443;-75
2021/03/04 02:22:51;;;;;;;16.17;9.30;;;;;;;;;;5034449;28;20450;-71
2021/03/04 02:25:28;;;;;;;8.40;6.30;;;;;;;;;;5015600;28;20475;-79
2021/03/04 02:27:55;;;;;;;10.10;7.47;;;;;;;;;;5034869;28;20834;-71
2021/03/04 02:30:26;;;;;;;9.97;5.43;;;;;;;;;;5035118;28;20491;-72
2021/03/04 02:32:55;;;;;;;9.00;6.87;;;;;;;;;;5034901;28;20456;-72
2021/03/04 02:35:29;;;;;;;9.20;6.73;;;;;;;;;;5034975;28;20436;-72
2021/03/04 02:37:56;;;;;;;11.20;6.90;;;;;;;;;;5016499;28;20575;-72
2021/03/04 02:40:23;;;;;;;11.33;7.83;;;;;;;;;;5034253;28;20437;-72
2021/03/04 02:42:51;;;;;;;8.20;6.90;;;;;;;;;;5034579;28;20730;-73
2021/03/04 02:45:17;;;;;;;10.03;5.93;;;;;;;;;;5034600;28;20514;-71
2021/03/04 02:47:43;;;;;;;6.20;5.60;;;;;;;;;;5034685;28;20433;-71
2021/03/04 02:50:10;;;;;;;9.50;6.17;;;;;;;;;;5034470;28;20534;-71
2021/03/04 02:52:37;;;;;;;8.87;6.13;;;;;;;;;;5034547;28;20436;-74
2021/03/04 02:55:04;;;;;;;10.23;6.80;;;;;;;;;;5033969;28;20861;-72
2021/03/04 02:57:31;;;;;;;9.33;6.63;;;;;;;;;;5034599;28;20433;-71
2021/03/04 02:59:57;;;;;;;10.13;5.97;;;;;;;;;;5033898;28;20463;-72
2021/03/04 03:02:24;;;;;;;7.30;5.47;;;;;;;;;;5034535;28;20759;-74
2021/03/04 03:04:50;;;;;;;8.30;7.43;;;;;;;;;;5033564;28;20553;-72
2021/03/04 03:07:17;;;;;;;9.27;7.27;;;;;;;;;;5034255;28;20440;-72
2021/03/04 03:09:44;;;;;;;14.00;7.40;;;;;;;;;;5033835;28;20453;-71
2021/03/04 03:12:11;;;;;;;9.63;7.80;;;;;;;;;;5034015;28;20432;-71
2021/03/04 03:14:37;;;;;;;8.87;6.90;;;;;;;;;;5034218;28;20518;-71
2021/03/04 03:17:03;;;;;;;9.20;6.90;;;;;;;;;;5035511;28;20728;-72
2021/03/04 03:19:31;;;;;;;9.30;7.23;;;;;;;;;;5035283;28;20438;-71
2021/03/04 03:21:57;;;;;;;13.03;8.07;;;;;;;;;;5034520;28;20809;-71
2021/03/04 03:24:23;;;;;;;9.37;7.80;;;;;;;;;;5032949;28;20483;-72
2021/03/04 03:26:50;;;;;;;12.73;7.97;;;;;;;;;;5033584;28;20451;-78
2021/03/04 03:29:16;;;;;;;9.43;6.30;;;;;;;;;;5033580;28;20845;-72
2021/03/04 03:31:44;;;;;;;8.00;6.80;;;;;;;;;;5033881;28;20429;-75
2021/03/04 03:34:10;;;;;;;11.00;7.10;;;;;;;;;;5033155;28;21154;-71
2021/03/04 03:36:37;;;;;;;10.50;6.60;;;;;;;;;;5033843;28;20452;-74
2021/03/04 03:39:07;;;;;;;11.53;8.17;;;;;;;;;;5033328;28;20419;-72
2021/03/04 03:41:34;;;;;;;12.20;8.17;;;;;;;;;;5034238;28;20429;-74
2021/03/04 03:44:01;;;;;;;10.50;8.17;;;;;;;;;;5033926;28;20466;-72
2021/03/04 03:46:28;;;;;;;10.13;8.00;;;;;;;;;;5033998;28;20437;-74
2021/03/04 03:48:54;;;;;;;9.70;7.43;;;;;;;;;;5033263;28;20506;-72
2021/03/04 03:51:21;;;;;;;11.67;7.57;;;;;;;;;;5033198;28;20442;-77
2021/03/04 03:53:48;;;;;;;9.83;7.57;;;;;;;;;;5033349;28;20926;-73
2021/03/04 03:56:14;;;;;;;10.73;7.70;;;;;;;;;;5032029;28;20532;-74
2021/03/04 03:58:40;;;;;;;10.43;7.67;;;;;;;;;;5033402;28;20436;-71
2021/03/04 04:01:06;;;;;;;12.43;7.80;;;;;;;;;;5032499;28;20923;-77
2021/03/04 04:03:34;;;;;;;9.23;7.40;;;;;;;;;;5033090;28;20436;-73
2021/03/04 04:06:00;;;;;;;11.70;8.80;;;;;;;;;;5015331;28;20455;-71
2021/03/04 04:08:28;;;;;;;15.67;8.47;;;;;;;;;;5014498;28;20504;-74
2021/03/04 04:10:54;;;;;;;14.83;7.50;;;;;;;;;;5032521;28;20440;-72
2021/03/04 04:13:20;;;;;;;14.27;8.43;;;;;;;;;;5033133;28;20947;-76
2021/03/04 04:15:46;;;;;;;12.73;8.70;;;;;;;;;;5032102;28;20473;-74
2021/03/04 04:18:12;;;;;;;11.60;8.53;;;;;;;;;;5032946;28;20936;-78
2021/03/04 04:20:39;;;;;;;12.50;8.33;;;;;;;;;;5032082;28;20535;-74
2021/03/04 04:23:06;;;;;;;10.80;7.80;;;;;;;;;;5034832;28;20932;-73
2021/03/04 04:25:37;;;;;;;12.77;8.70;;;;;;;;;;5032972;28;20486;-70
2021/03/04 04:28:03;;;;;;;12.33;8.03;;;;;;;;;;5032589;28;20446;-71
2021/03/04 04:30:28;;;;;;;9.33;7.27;;;;;;;;;;5032691;28;20784;-72
2021/03/04 04:32:54;;;;;;;11.30;8.20;;;;;;;;;;5031375;28;20456;-72
2021/03/04 04:35:20;;;;;;;8.30;7.13;;;;;;;;;;5031853;28;20412;-72
2021/03/04 04:37:46;;;;;;;10.53;6.30;;;;;;;;;;5031311;28;20434;-77
2021/03/04 04:40:13;;;;;;;14.60;7.40;;;;;;;;;;5031439;28;20531;-73
2021/03/04 04:42:39;;;;;;;10.07;7.40;;;;;;;;;;5031627;28;20711;-74
2021/03/04 04:45:06;;;;;;;11.10;7.43;;;;;;;;;;5031762;28;20467;-70
2021/03/04 04:47:32;;;;;;;8.60;6.93;;;;;;;;;;5032040;28;20479;-73
2021/03/04 04:49:58;;;;;;;8.97;7.03;;;;;;;;;;5031967;28;20427;-76
2021/03/04 04:52:24;;;;;;;10.63;7.20;;;;;;;;;;5016537;28;20479;-75
2021/03/04 04:54:50;;;;;;;13.03;7.83;;;;;;;;;;5034890;28;20827;-71
2021/03/04 04:57:16;;;;;;;10.23;7.20;;;;;;;;;;5033141;28;20440;-70
2021/03/04 04:59:42;;;;;;;10.47;7.70;;;;;;;;;;5031821;28;20487;-71
2021/03/04 05:02:08;;;;;;;10.33;7.93;;;;;;;;;;5013563;28;20421;-72
2021/03/04 05:04:34;;;;;;;9.30;6.90;;;;;;;;;;5031421;28;20874;-71
2021/03/04 05:07:00;;;;;;;12.73;7.13;;;;;;;;;;5031112;28;20411;-73
2021/03/04 05:09:26;;;;;;;11.33;8.47;;;;;;;;;;5031884;28;20428;-71
2021/03/04 05:11:52;;;;;;;9.97;7.77;;;;;;;;;;5031301;28;20835;-75
2021/03/04 05:14:19;;;;;;;11.50;7.20;;;;;;;;;;5031576;28;20471;-72
2021/03/04 05:16:45;;;;;;;9.73;7.80;;;;;;;;;;5031512;28;20412;-71
2021/03/04 05:19:11;;;;;;;10.67;7.13;;;;;;;;;;5013588;28;20435;-71
2021/03/04 05:21:37;;;;;;;10.17;7.60;;;;;;;;;;5032020;28;20447;-71
2021/03/04 05:24:03;;;;;;;12.23;7.83;;;;;;;;;;5034144;28;20452;-72
2021/03/04 05:26:29;;;;;;;9.80;7.77;;;;;;;;;;5032820;28;20429;-71
2021/03/04 05:28:55;;;;;;;12.27;8.63;;;;;;;;;;5035657;28;20945;-71
2021/03/04 05:31:21;;;;;;;10.70;8.60;;;;;;;;;;5035547;28;20770;-73
2021/03/04 05:33:47;;;;;;;12.87;7.40;;;;;;;;;;5035532;28;20474;-79
2021/03/04 05:36:13;;;;;;;11.50;7.90;;;;;;;;;;5035618;28;20418;-72
2021/03/04 05:41:42;;;;;;;12.80;8.77;;;;;;;;;;5035132;28;20446;-72
2021/03/04 05:44:08;;;;;;;17.37;10.37;;;;;;;;;;5034533;28;20463;-72
2021/03/04 05:46:35;;;;;;;14.47;9.50;;;;;;;;;;5017222;28;20459;-72
2021/03/04 05:49:02;;;;;;;13.33;9.30;;;;;;;;;;5034645;28;20408;-72
2021/03/04 05:51:31;;;;;;;16.53;9.20;;;;;;;;;;5034787;28;20431;-71
2021/03/04 05:57:02;;;;;;;12.50;9.60;;;;;;;;;;5034445;28;20511;-71
2021/03/04 05:59:28;;;;;;;13.40;8.97;;;;;;;;;;5034723;28;20454;-73
2021/03/04 06:01:58;;;;;;;11.70;8.60;;;;;;;;;;5033936;28;20502;-69
2021/03/04 06:04:24;;;;;;;15.37;9.03;;;;;;;;;;5032690;28;20972;-70
2021/03/04 06:06:50;;;;;;;12.37;8.37;;;;;;;;;;5032626;28;20434;-72
2021/03/04 06:09:16;;;;;;;12.07;7.53;;;;;;;;;;5032231;28;20408;-74
2021/03/04 06:11:42;;;;;;;16.03;8.57;;;;;;;;;;5033042;28;20431;-76
2021/03/04 06:14:08;;;;;;;9.10;7.23;;;;;;;;;;5016045;28;20665;-77
2021/03/04 06:16:34;;;;;;;10.97;8.83;;;;;;;;;;5033611;28;20419;-76
2021/03/04 06:19:00;;;;;;;10.43;8.43;;;;;;;;;;5033252;28;20445;-77
2021/03/04 06:21:27;;;;;;;14.20;9.27;;;;;;;;;;5033048;28;20169;-76
2021/03/04 06:26:57;;;;;;;11.40;8.30;;;;;;;;;;5032437;28;20434;-78
2021/03/04 06:29:25;;;;;;;13.53;8.97;;;;;;;;;;5032617;28;20427;-76
2021/03/04 06:32:09;;;;;;;15.87;8.60;;;;;;;;;;5032713;28;20463;-76
2021/03/04 06:34:34;;;;;;;12.80;8.20;;;;;;;;;;5032199;28;20478;-71
2021/03/04 06:37:00;;;;;;;10.30;8.50;;;;;;;;;;5033098;28;20424;-73
2021/03/04 06:39:27;;;;;;;12.43;8.63;;;;;;;;;;5031446;28;20507;-72
2021/03/04 06:41:58;;;;;;;15.30;7.90;;;;;;;;;;5032632;28;20596;-79
2021/03/04 06:44:24;;;;;;;9.80;7.73;;;;;;;;;;5032560;28;20484;-71
2021/03/04 06:47:10;;;;;;;18.97;8.90;;;;;;;;;;5032725;28;20770;-72
2021/03/04 06:49:37;;;;;;;11.67;8.60;;;;;;;;;;5032929;28;20791;-73
2021/03/04 06:52:03;;;;;;;10.83;8.93;;;;;;;;;;5034034;28;20420;-74
2021/03/04 06:54:29;;;;;;;14.13;9.10;;;;;;;;;;5033555;28;20408;-75
2021/03/04 06:56:55;;;;;;;12.20;9.90;;;;;;;;;;5033659;28;20412;-73
2021/03/04 06:59:21;;;;;;;14.33;9.90;;;;;;;;;;5015151;28;20451;-71
2021/03/04 07:01:47;;;;;;;14.90;9.37;;;;;;;;;;5033624;28;20458;-71
2021/03/04 07:04:16;;;;;;;13.90;9.10;;;;;;;;;;5033222;28;20451;-73
2021/03/04 07:06:46;;;;;;;16.30;10.13;;;;;;;;;;5034148;28;20453;-74
2021/03/04 07:12:16;;;;;;;9.93;8.43;;;;;;;;;;5037799;28;20411;-71
2021/03/04 07:14:43;;;;;;;12.47;8.67;;;;;;;;;;5034837;28;20484;-71
2021/03/04 07:17:09;;;;;;;13.57;9.33;;;;;;;;;;5034476;28;20913;-74
2021/03/04 07:19:37;;;;;;;12.93;9.00;;;;;;;;;;5033942;28;20507;-79
2021/03/04 07:22:03;;;;;;;14.17;10.93;;;;;;;;;;5034271;28;20467;-76
2021/03/04 07:27:34;;;;;;;15.00;9.90;;;;;;;;;;5032856;28;20487;-74
2021/03/04 07:30:01;;;;;;;14.80;10.13;;;;;;;;;;5034424;28;20424;-75
2021/03/04 07:32:27;;;;;;;15.87;10.30;;;;;;;;;;5033818;28;20886;-76
2021/03/04 07:34:53;;;;;;;16.50;9.87;;;;;;;;;;5033343;28;20475;-75
2021/03/04 07:37:19;;;;;;;12.60;9.27;;;;;;;;;;5033857;28;20491;-76
2021/03/04 07:39:47;;;;;;;14.90;10.20;;;;;;;;;;5033606;28;20452;-73
2021/03/04 07:42:20;;;;;;;16.00;9.70;;;;;;;;;;5033222;28;20412;-72
2021/03/04 07:44:46;;;;;;;11.83;9.10;;;;;;;;;;5033179;28;20563;-78
2021/03/04 07:47:12;;;;;;;12.97;8.67;;;;;;;;;;5033547;28;20411;-71
2021/03/04 07:49:39;;;;;;;13.43;9.30;;;;;;;;;;5033263;28;20472;-72
2021/03/04 07:52:09;;;;;;;11.77;8.77;;;;;;;;;;5033449;28;20475;-72
2021/03/04 07:57:43;;;;;;;13.50;8.90;;;;;;;;;;5033164;28;20461;-73
2021/03/04 08:00:09;;;;;;;14.00;8.83;;;;;;;;;;5033165;28;20416;-74
2021/03/04 08:02:39;;;;;;;11.10;8.07;;;;;;;;;;5032803;28;20400;-76
2021/03/04 08:05:05;;;;;;;18.37;7.90;;;;;;;;;;5032787;28;20463;-77
2021/03/04 08:07:31;;;;;;;9.30;8.10;;;;;;;;;;5032928;28;20506;-78
2021/03/04 08:10:11;;;;;;;15.53;8.80;;;;;;;;;;5033269;28;20517;-79
2021/03/04 08:12:49;;;;;;;11.50;6.90;;;;;;;;;;5033013;28;20411;-75
2021/03/04 08:15:15;;;;;;;12.53;7.77;;;;;;;;;;5033316;28;20422;-80
2021/03/04 08:17:41;;;;;;;10.53;7.77;;;;;;;;;;5032834;28;20475;-79
2021/03/04 08:20:17;;;;;;;11.20;8.30;;;;;;;;;;5032878;28;20813;-76
2021/03/04 08:22:51;;;;;;;12.97;8.90;;;;;;;;;;5033107;28;20727;-79
2021/03/04 08:25:24;;;;;;;10.57;7.83;;;;;;;;;;5033225;28;20812;-78
2021/03/04 08:27:52;;;;;;;9.50;7.77;;;;;;;;;;5032684;28;20400;-76
2021/03/04 08:30:28;;;;;;;8.93;7.00;;;;;;;;;;5032780;28;20775;-82
2021/03/04 08:32:55;;;;;;;7.03;6.33;;;;;;;;;;5032514;28;20981;-77
2021/03/04 08:35:22;;;;;;;11.20;7.23;;;;;;;;;;5032764;28;20901;-78
2021/03/04 08:37:54;;;;;;;13.13;8.00;;;;;;;;;;5032055;28;20439;-77
2021/03/04 08:40:20;;;;;;;12.80;7.93;;;;;;;;;;5031910;28;20412;-78
2021/03/04 08:42:46;;;;;;;8.60;6.70;;;;;;;;;;5014177;28;20424;-82
2021/03/04 08:45:13;;;;;;;10.63;8.63;;;;;;;;;;5031816;28;20901;-80
2021/03/04 08:47:40;;;;;;;10.73;7.90;;;;;;;;;;5032180;28;20483;-80
2021/03/04 08:50:06;;;;;;;8.93;7.67;;;;;;;;;;5032532;28;20424;-79
2021/03/04 08:58:21;;;;;;;13.23;8.50;;;;;;;;;;5031210;28;20450;-76
2021/03/04 09:00:58;;;;;;;13.67;7.33;;;;;;;;;;5030987;28;20403;-75
2021/03/04 09:03:25;;;;;;;9.93;7.30;;;;;;;;;;5033392;28;20422;-74
2021/03/04 09:06:03;;;;;;;12.27;7.17;;;;;;;;;;5035001;28;20476;-77
2021/03/04 09:08:32;;;;;;;15.50;7.40;;;;;;;;;;5031154;28;20466;-72
2021/03/04 09:10:58;;;;;;;9.33;6.47;;;;;;;;;;5029638;28;20855;-73
2021/03/04 09:13:25;;;;;;;11.33;7.27;;;;;;;;;;5031613;28;20507;-73
2021/03/04 09:15:53;;;;;;;11.10;6.60;;;;;;;;;;5030487;28;20438;-74
2021/03/04 09:18:20;;;;;;;10.67;6.40;;;;;;;;;;5030767;28;20821;-72
2021/03/04 09:20:47;;;;;;;8.57;6.30;;;;;;;;;;5012795;28;20430;-71
2021/03/04 09:23:13;;;;;;;11.47;7.33;;;;;;;;;;5030485;28;20416;-72
2021/03/04 09:25:40;;;;;;;10.10;7.23;;;;;;;;;;5029706;28;20567;-71
2021/03/04 09:28:07;;;;;;;11.87;7.73;;;;;;;;;;5030132;28;20412;-72
2021/03/04 09:30:33;;;;;;;12.80;6.57;;;;;;;;;;5030280;28;20412;-73
2021/03/04 09:33:00;;;;;;;15.60;7.40;;;;;;;;;;5030299;28;20514;-77
2021/03/04 09:35:26;;;;;;;11.00;6.50;;;;;;;;;;5030855;28;20826;-74
2021/03/04 09:37:52;;;;;;;8.80;6.80;;;;;;;;;;5012533;28;20509;-72
2021/03/04 09:40:22;;;;;;;8.00;6.80;;;;;;;;;;5029839;28;20494;-74
2021/03/04 09:42:48;;;;;;;9.07;7.13;;;;;;;;;;5030223;28;20805;-75
2021/03/04 09:45:14;;;;;;;14.97;7.27;;;;;;;;;;5030426;28;20473;-72
2021/03/04 09:47:45;;;;;;;10.87;6.27;;;;;;;;;;5030576;28;20416;-76
2021/03/04 09:50:24;;;;;;;13.37;8.60;;;;;;;;;;5031048;28;20491;-73
2021/03/04 09:58:58;;;;;;;11.30;6.67;;;;;;;;;;5030553;28;20499;-77
2021/03/04 10:01:28;;;;;;;14.50;6.30;;;;;;;;;;5030769;28;20415;-73
2021/03/04 10:03:59;;;;;;;8.60;6.60;;;;;;;;;;5030229;28;20866;-75
2021/03/04 10:06:25;;;;;;;8.20;5.87;;;;;;;;;;5030206;28;20768;-73
2021/03/04 10:08:55;;;;;;;8.43;6.37;;;;;;;;;;5029885;28;20411;-76
2021/03/04 10:11:25;;;;;;;6.80;5.60;;;;;;;;;;5029348;28;20494;-76
2021/03/04 10:13:52;;;;;;;8.97;6.63;;;;;;;;;;5013445;28;20478;-74
2021/03/04 10:16:18;;;;;;;9.23;6.70;;;;;;;;;;5033598;28;20431;-74
2021/03/04 10:18:48;;;;;;;10.73;7.03;;;;;;;;;;5033674;28;20430;-73
2021/03/04 10:21:16;;;;;;;8.60;6.30;;;;;;;;;;5033780;28;20773;-73
2021/03/04 10:23:42;;;;;;;11.77;7.33;;;;;;;;;;5033468;28;20432;-73
2021/03/04 10:26:08;;;;;;;10.17;7.20;;;;;;;;;;5033797;28;20463;-72
2021/03/04 10:28:34;;;;;;;12.40;6.73;;;;;;;;;;5033449;28;20808;-74
2021/03/04 10:31:00;;;;;;;9.90;6.00;;;;;;;;;;5033521;28;20439;-72
2021/03/04 10:33:26;;;;;;;11.17;6.00;;;;;;;;;;5033573;28;20493;-75
2021/03/04 10:35:52;;;;;;;11.27;6.57;;;;;;;;;;5031955;28;20998;-72
2021/03/04 10:38:18;;;;;;;12.40;6.97;;;;;;;;;;5033053;28;20404;-72
2021/03/04 10:40:44;;;;;;;11.67;7.40;;;;;;;;;;5032182;28;20466;-72
2021/03/04 10:43:10;;;;;;;9.27;7.40;;;;;;;;;;5033113;28;20419;-73
2021/03/04 10:45:36;;;;;;;9.73;7.50;;;;;;;;;;5032550;28;20464;-72
2021/03/04 10:48:02;;;;;;;10.50;8.10;;;;;;;;;;5032826;28;20427;-73
2021/03/04 10:50:28;;;;;;;10.70;8.40;;;;;;;;;;5034058;28;20515;-73
2021/03/04 10:52:54;;;;;;;12.63;7.83;;;;;;;;;;5033417;28;20415;-73
2021/03/04 10:58:23;;;;;;;7.63;6.87;;;;;;;;;;5032790;28;20431;-73
2021/03/04 11:00:51;;;;;;;12.67;8.13;;;;;;;;;;5032109;28;20773;-73
2021/03/04 11:03:17;;;;;;;10.67;7.10;;;;;;;;;;5032474;28;20432;-74
2021/03/04 11:05:43;;;;;;;15.90;7.23;;;;;;;;;;5031731;28;20467;-76
2021/03/04 11:08:09;;;;;;;13.33;8.00;;;;;;;;;;5032465;28;20415;-75
2021/03/04 11:13:38;;;;;;;10.77;7.70;;;;;;;;;;5031155;28;20470;-75
2021/03/04 11:16:05;;;;;;;10.00;6.70;;;;;;;;;;5031583;28;20503;-77
2021/03/04 11:18:31;;;;;;;14.43;7.30;;;;;;;;;;5032339;28;20416;-73
2021/03/04 11:20:57;;;;;;;11.70;8.60;;;;;;;;;;5031919;28;20439;-72
2021/03/04 11:23:23;;;;;;;12.77;7.20;;;;;;;;;;5031368;28;20482;-74
2021/03/04 11:28:52;;;;;;;12.57;7.30;;;;;;;;;;5031936;28;20781;-72
2021/03/04 11:31:18;;;;;;;13.13;7.20;;;;;;;;;;5032223;28;20408;-72
2021/03/04 11:33:44;;;;;;;12.13;8.30;;;;;;;;;;5031290;28;20641;-72
2021/03/04 11:36:10;;;;;;;10.77;7.20;;;;;;;;;;5031417;28;20419;-77
2021/03/04 11:38:36;;;;;;;18.63;9.03;;;;;;;;;;5030969;28;20444;-78
2021/03/04 11:41:02;;;;;;;12.03;7.27;;;;;;;;;;5031484;28;20511;-79
2021/03/04 11:43:28;;;;;;;13.80;7.37;;;;;;;;;;5031368;28;20416;-73
2021/03/04 11:45:54;;;;;;;14.67;7.03;;;;;;;;;;5030985;28;20976;-75
2021/03/04 11:48:20;;;;;;;12.97;7.93;;;;;;;;;;5031016;28;20495;-74
2021/03/04 11:50:46;;;;;;;12.77;8.07;;;;;;;;;;5031001;28;20931;-76
2021/03/04 11:53:12;;;;;;;9.40;7.37;;;;;;;;;;5031254;28;20424;-74
2021/03/04 11:58:41;;;;;;;9.87;6.77;;;;;;;;;;5031325;28;20422;-77
2021/03/04 12:01:07;;;;;;;11.60;7.30;;;;;;;;;;5031564;28;20498;-79
2021/03/04 12:03:33;;;;;;;15.13;7.73;;;;;;;;;;5030654;28;20495;-74
2021/03/04 12:05:59;;;;;;;15.73;7.20;;;;;;;;;;5030213;28;20555;-74
2021/03/04 12:08:25;;;;;;;9.73;7.03;;;;;;;;;;5031040;28;20408;-73
2021/03/04 12:13:55;;;;;;;14.10;7.90;;;;;;;;;;5031413;28;20478;-73
2021/03/04 12:16:21;;;;;;;15.17;7.17;;;;;;;;;;5031056;28;20416;-75
2021/03/04 12:18:47;;;;;;;8.97;7.60;;;;;;;;;;5033795;28;20435;-76
2021/03/04 12:21:13;;;;;;;12.20;7.97;;;;;;;;;;5032147;28;20431;-78
2021/03/04 12:23:42;;;;;;;13.53;7.37;;;;;;;;;;5031334;28;20412;-74
2021/03/04 12:29:11;;;;;;;10.90;8.50;;;;;;;;;;5030850;28;20471;-74
2021/03/04 12:31:39;;;;;;;11.23;7.77;;;;;;;;;;5030325;28;20411;-74
2021/03/04 12:34:05;;;;;;;15.63;8.90;;;;;;;;;;5030659;28;20475;-73
2021/03/04 12:36:32;;;;;;;13.63;7.93;;;;;;;;;;5029686;28;20491;-72
2021/03/04 12:38:58;;;;;;;16.23;8.73;;;;;;;;;;5030900;28;20884;-74
2021/03/04 12:44:27;;;;;;;12.17;8.10;;;;;;;;;;5030371;28;20502;-72
2021/03/04 12:46:53;;;;;;;13.57;9.33;;;;;;;;;;5030779;28;20432;-75
2021/03/04 12:49:19;;;;;;;18.47;9.57;;;;;;;;;;5030602;28;20512;-75
2021/03/04 12:51:45;;;;;;;12.50;9.17;;;;;;;;;;5030802;28;20432;-72
2021/03/04 13:00:37;;;;;;;9.70;7.73;;;;;;;;;;5030887;28;20419;-73
2021/03/04 13:03:03;;;;;;;11.23;8.00;;;;;;;;;;5030991;28;20428;-72
2021/03/04 13:05:29;;;;;;;9.80;7.80;;;;;;;;;;5029964;28;20472;-77
2021/03/04 13:07:55;;;;;;;16.77;8.43;;;;;;;;;;5030434;28;20428;-73
2021/03/04 13:10:21;;;;;;;12.40;7.43;;;;;;;;;;5030580;28;20777;-75
2021/03/04 13:12:47;;;;;;;11.37;7.77;;;;;;;;;;5030807;28;20408;-73
2021/03/04 13:15:14;;;;;;;20.07;9.10;;;;;;;;;;5012590;28;20428;-73
2021/03/04 13:17:40;;;;;;;17.03;7.77;;;;;;;;;;5031098;28;20889;-72
2021/03/04 13:20:06;;;;;;;13.90;7.40;;;;;;;;;;5030771;28;20424;-75
2021/03/04 13:22:32;;;;;;;12.10;7.00;;;;;;;;;;5030245;28;20415;-73
2021/03/04 13:24:58;;;;;;;11.07;6.87;;;;;;;;;;5030048;28;20965;-73
2021/03/04 13:27:24;;;;;;;16.10;7.90;;;;;;;;;;5031128;28;20415;-73
2021/03/04 13:29:51;;;;;;;12.40;6.97;;;;;;;;;;5031291;28;20447;-73
2021/03/04 13:32:17;;;;;;;12.17;6.83;;;;;;;;;;5030542;28;20411;-75
2021/03/04 13:34:43;;;;;;;10.43;7.30;;;;;;;;;;5030568;28;20560;-73
2021/03/04 13:37:09;;;;;;;13.20;7.33;;;;;;;;;;5030520;28;20427;-73
2021/03/04 13:39:35;;;;;;;11.00;6.60;;;;;;;;;;5030769;28;20825;-73
2021/03/04 13:42:01;;;;;;;12.30;7.93;;;;;;;;;;5030546;28;20416;-72
2021/03/04 13:44:27;;;;;;;8.60;7.30;;;;;;;;;;5030250;28;20451;-73
2021/03/04 13:46:55;;;;;;;10.60;7.43;;;;;;;;;;5031268;28;20412;-72
2021/03/04 13:49:21;;;;;;;12.50;7.13;;;;;;;;;;5034913;28;20412;-73
2021/03/04 13:51:46;;;;;;;14.33;8.57;;;;;;;;;;5035013;28;20431;-73
2021/03/04 13:54:12;;;;;;;15.17;7.13;;;;;;;;;;5034044;28;20408;-73
2021/03/04 13:59:42;;;;;;;11.70;6.17;;;;;;;;;;5033871;28;20415;-74
2021/03/04 14:02:08;;;;;;;15.50;9.30;;;;;;;;;;5033711;28;20396;-74
2021/03/04 14:04:34;;;;;;;9.83;6.37;;;;;;;;;;5033960;28;20502;-74
2021/03/04 14:07:00;;;;;;;15.30;6.37;;;;;;;;;;5033503;28;20466;-73
2021/03/04 14:09:26;;;;;;;15.03;6.43;;;;;;;;;;5016117;28;20452;-74
2021/03/04 14:14:56;;;;;;;11.10;5.97;;;;;;;;;;5033900;28;20472;-73
2021/03/04 14:17:22;;;;;;;12.03;5.90;;;;;;;;;;5033571;28;20428;-78
2021/03/04 14:19:48;;;;;;;10.90;5.87;;;;;;;;;;5032917;28;20467;-75
2021/03/04 14:22:14;;;;;;;14.27;7.27;;;;;;;;;;5033049;28;20427;-73
2021/03/04 14:24:39;;;;;;;11.57;6.23;;;;;;;;;;5032995;28;20443;-73
2021/03/04 14:30:10;;;;;;;7.00;5.50;;;;;;;;;;5033213;28;20411;-76
2021/03/04 14:32:36;;;;;;;8.93;5.27;;;;;;;;;;5034774;28;20404;-75
2021/03/04 14:35:02;;;;;;;11.30;6.87;;;;;;;;;;5040254;28;20500;-74
2021/03/04 14:37:29;;;;;;;11.73;5.70;;;;;;;;;;5034484;28;20499;-73
2021/03/04 14:39:55;;;;;;;12.03;4.27;;;;;;;;;;5033895;28;20420;-75
2021/03/04 14:42:22;;;;;;;8.73;4.67;;;;;;;;;;5031946;28;20419;-75
2021/03/04 14:44:48;;;;;;;14.17;4.60;;;;;;;;;;5030134;28;20461;-76
2021/03/04 14:47:14;;;;;;;7.20;3.77;;;;;;;;;;5029758;28;20494;-73
2021/03/04 14:49:40;;;;;;;11.33;4.00;;;;;;;;;;5031797;28;20937;-73
2021/03/04 14:52:06;;;;;;;8.37;4.60;;;;;;;;;;5031589;28;20768;-73
2021/03/04 14:54:33;;;;;;;7.07;3.83;;;;;;;;;;5030955;28;20416;-74
2021/03/04 15:00:04;;;;;;;9.40;3.97;;;;;;;;;;5030787;28;20422;-73
2021/03/04 15:02:30;;;;;;;18.80;4.33;;;;;;;;;;5030282;28;20826;-74
2021/03/04 15:04:56;;;;;;;10.90;5.53;;;;;;;;;;5030251;28;20534;-73
2021/03/04 15:07:22;;;;;;;7.57;4.10;;;;;;;;;;5029687;28;20508;-74
2021/03/04 15:09:48;;;;;;;8.00;4.73;;;;;;;;;;5012427;28;20502;-76
2021/03/04 15:15:17;;;;;;;16.43;5.17;;;;;;;;;;5030405;28;20458;-74
2021/03/04 15:17:43;;;;;;;11.13;4.70;;;;;;;;;;5032822;28;20420;-74
2021/03/04 15:20:10;;;;;;;9.10;4.80;;;;;;;;;;5033012;28;20438;-73
2021/03/04 15:22:36;;;;;;;7.60;4.30;;;;;;;;;;5031058;28;20987;-77
2021/03/04 15:30:51;;;;;;;9.37;4.50;;;;;;;;;;5032658;28;20410;-74
2021/03/04 15:33:17;;;;;;;4.53;3.00;;;;;;;;;;5031728;28;20849;-74
2021/03/04 15:35:43;;;;;;;8.93;4.00;;;;;;;;;;5032529;28;20506;-75
2021/03/04 15:38:09;;;;;;;10.30;4.13;;;;;;;;;;5032333;28;20417;-73
2021/03/04 15:40:35;;;;;;;6.93;3.23;;;;;;;;;;5031539;28;20474;-74
2021/03/04 15:43:01;;;;;;;5.40;3.13;;;;;;;;;;5032246;28;20463;-74
2021/03/04 15:45:27;;;;;;;13.00;4.13;;;;;;;;;;5032326;28;20475;-74
2021/03/04 15:47:53;;;;;;;9.00;3.87;;;;;;;;;;5029488;28;20466;-75
2021/03/04 15:50:20;;;;;;;12.57;3.40;;;;;;;;;;5029131;28;20412;-75